sensor_id;sensor_type;location;lat;lon;timestamp;P1;durP1;ratioP1;P2;durP2;ratioP2
24096;SDS011;12275;48.550;12.132;2023-06-22T00:01:27;1128.05;;;999.90;;
24096;SDS011;12275;48.550;12.132;2023-06-22T00:03:53;1149.88;;;999.90;;
24096;SDS011;12275;48.550;12.132;2023-06-22T00:06:19;1213.03;;;999.90;;
24096;SDS011;12275;48.550;12.132;2023-06-22T00:08:45;1216.15;;;999.90;;
24096;SDS011;12275;48.550;12.132;2023-06-22T00:11:11;1244.90;;;999.90;;
24096;SDS011;12275;48.550;12.132;2023-06-22T00:13:37;1222.45;;;999.90;;
24096;SDS011;12275;48.550;12.132;2023-06-22T00:16:04;1188.90;;;999.90;;
24096;SDS011;12275;48.550;12.132;2023-06-22T00:18:30;1180.78;;;999.90;;
24096;SDS011;12275;48.550;12.132;2023-06-22T00:20:57;1228.28;;;999.90;;
24096;SDS011;12275;48.550;12.132;2023-06-22T00:23:23;1169.33;;;999.90;;
24096;SDS011;12275;48.550;12.132;2023-06-22T00:25:49;1212.70;;;999.90;;
24096;SDS011;12275;48.550;12.132;2023-06-22T00:28:15;1214.32;;;999.90;;
24096;SDS011;12275;48.550;12.132;2023-06-22T00:30:41;1174.67;;;999.90;;
24096;SDS011;12275;48.550;12.132;2023-06-22T00:33:07;1240.60;;;999.90;;
24096;SDS011;12275;48.550;12.132;2023-06-22T00:35:33;1228.90;;;999.90;;
24096;SDS011;12275;48.550;12.132;2023-06-22T00:38:00;1197.63;;;999.90;;
24096;SDS011;12275;48.550;12.132;2023-06-22T00:40:27;1247.47;;;999.90;;
24096;SDS011;12275;48.550;12.132;2023-06-22T00:42:53;1191.28;;;999.90;;
24096;SDS011;12275;48.550;12.132;2023-06-22T00:45:20;1214.87;;;999.90;;
24096;SDS011;12275;48.550;12.132;2023-06-22T00:47:48;1272.45;;;999.90;;
24096;SDS011;12275;48.550;12.132;2023-06-22T00:50:16;1267.17;;;999.90;;
24096;SDS011;12275;48.550;12.132;2023-06-22T00:52:45;1278.88;;;999.90;;
24096;SDS011;12275;48.550;12.132;2023-06-22T00:55:11;1255.43;;;999.90;;
24096;SDS011;12275;48.550;12.132;2023-06-22T00:57:37;1245.30;;;999.90;;
24096;SDS011;12275;48.550;12.132;2023-06-22T01:00:04;1246.80;;;999.90;;
24096;SDS011;12275;48.550;12.132;2023-06-22T01:02:34;1251.53;;;999.90;;
24096;SDS011;12275;48.550;12.132;2023-06-22T01:05:01;1263.00;;;999.90;;
24096;SDS011;12275;48.550;12.132;2023-06-22T01:07:31;1251.90;;;999.90;;
24096;SDS011;12275;48.550;12.132;2023-06-22T01:10:14;1235.60;;;999.90;;
24096;SDS011;12275;48.550;12.132;2023-06-22T01:12:45;1229.43;;;999.90;;
24096;SDS011;12275;48.550;12.132;2023-06-22T01:15:16;1231.88;;;999.90;;
24096;SDS011;12275;48.550;12.132;2023-06-22T01:17:44;1251.53;;;999.90;;
24096;SDS011;12275;48.550;12.132;2023-06-22T01:20:11;1236.32;;;999.90;;
24096;SDS011;12275;48.550;12.132;2023-06-22T01:22:43;1231.65;;;999.90;;
24096;SDS011;12275;48.550;12.132;2023-06-22T01:25:20;1234.25;;;999.90;;
24096;SDS011;12275;48.550;12.132;2023-06-22T01:30:18;1223.10;;;999.90;;
24096;SDS011;12275;48.550;12.132;2023-06-22T01:32:44;1249.05;;;999.90;;
24096;SDS011;12275;48.550;12.132;2023-06-22T01:35:10;1264.63;;;999.90;;
24096;SDS011;12275;48.550;12.132;2023-06-22T01:37:38;1258.20;;;999.90;;
24096;SDS011;12275;48.550;12.132;2023-06-22T01:40:07;1242.78;;;999.90;;
24096;SDS011;12275;48.550;12.132;2023-06-22T01:42:34;1251.72;;;999.90;;
24096;SDS011;12275;48.550;12.132;2023-06-22T01:45:00;1261.60;;;999.90;;
24096;SDS011;12275;48.550;12.132;2023-06-22T01:47:27;1247.40;;;999.90;;
24096;SDS011;12275;48.550;12.132;2023-06-22T01:49:53;1261.95;;;999.90;;
24096;SDS011;12275;48.550;12.132;2023-06-22T01:52:19;1260.80;;;999.90;;
24096;SDS011;12275;48.550;12.132;2023-06-22T01:54:46;1275.45;;;999.90;;
24096;SDS011;12275;48.550;12.132;2023-06-22T01:57:13;1224.47;;;999.90;;
24096;SDS011;12275;48.550;12.132;2023-06-22T01:59:41;1263.53;;;999.90;;
24096;SDS011;12275;48.550;12.132;2023-06-22T02:02:09;1260.75;;;999.90;;
24096;SDS011;12275;48.550;12.132;2023-06-22T02:04:38;1219.13;;;999.90;;
24096;SDS011;12275;48.550;12.132;2023-06-22T02:07:15;1211.43;;;999.90;;
24096;SDS011;12275;48.550;12.132;2023-06-22T02:09:43;1238.60;;;999.90;;
24096;SDS011;12275;48.550;12.132;2023-06-22T02:12:10;1242.32;;;999.90;;
24096;SDS011;12275;48.550;12.132;2023-06-22T02:14:37;1227.43;;;999.90;;
24096;SDS011;12275;48.550;12.132;2023-06-22T02:17:03;1252.03;;;999.90;;
24096;SDS011;12275;48.550;12.132;2023-06-22T02:19:35;1247.37;;;999.90;;
24096;SDS011;12275;48.550;12.132;2023-06-22T02:22:01;1225.47;;;999.90;;
24096;SDS011;12275;48.550;12.132;2023-06-22T02:24:27;1248.38;;;999.90;;
24096;SDS011;12275;48.550;12.132;2023-06-22T02:26:56;1249.28;;;999.90;;
24096;SDS011;12275;48.550;12.132;2023-06-22T02:29:23;1254.07;;;999.90;;
24096;SDS011;12275;48.550;12.132;2023-06-22T02:31:49;1253.25;;;999.90;;
24096;SDS011;12275;48.550;12.132;2023-06-22T02:34:15;1246.47;;;999.90;;
24096;SDS011;12275;48.550;12.132;2023-06-22T02:36:46;1250.20;;;999.90;;
24096;SDS011;12275;48.550;12.132;2023-06-22T02:39:16;1262.70;;;999.90;;
24096;SDS011;12275;48.550;12.132;2023-06-22T02:41:42;1272.70;;;999.90;;
24096;SDS011;12275;48.550;12.132;2023-06-22T02:44:08;1266.05;;;999.90;;
24096;SDS011;12275;48.550;12.132;2023-06-22T02:46:34;1258.60;;;999.90;;
24096;SDS011;12275;48.550;12.132;2023-06-22T02:49:01;1255.15;;;999.90;;
24096;SDS011;12275;48.550;12.132;2023-06-22T02:51:27;1226.93;;;999.90;;
24096;SDS011;12275;48.550;12.132;2023-06-22T02:53:53;1258.43;;;999.90;;
24096;SDS011;12275;48.550;12.132;2023-06-22T02:56:22;1247.95;;;999.90;;
24096;SDS011;12275;48.550;12.132;2023-06-22T02:58:50;1258.88;;;999.90;;
24096;SDS011;12275;48.550;12.132;2023-06-22T03:01:16;1239.82;;;999.90;;
24096;SDS011;12275;48.550;12.132;2023-06-22T03:03:48;1227.63;;;999.90;;
24096;SDS011;12275;48.550;12.132;2023-06-22T03:06:14;1248.93;;;999.90;;
24096;SDS011;12275;48.550;12.132;2023-06-22T03:08:40;1229.33;;;999.90;;
24096;SDS011;12275;48.550;12.132;2023-06-22T03:11:06;1209.82;;;999.90;;
24096;SDS011;12275;48.550;12.132;2023-06-22T03:13:32;1169.50;;;999.90;;
24096;SDS011;12275;48.550;12.132;2023-06-22T03:15:58;1205.45;;;999.90;;
24096;SDS011;12275;48.550;12.132;2023-06-22T03:18:24;1225.47;;;999.90;;
24096;SDS011;12275;48.550;12.132;2023-06-22T03:20:50;1237.27;;;999.90;;
24096;SDS011;12275;48.550;12.132;2023-06-22T03:23:16;1247.93;;;999.90;;
24096;SDS011;12275;48.550;12.132;2023-06-22T03:25:42;1227.85;;;999.90;;
24096;SDS011;12275;48.550;12.132;2023-06-22T03:28:09;1239.83;;;999.90;;
24096;SDS011;12275;48.550;12.132;2023-06-22T03:30:35;1238.93;;;999.90;;
24096;SDS011;12275;48.550;12.132;2023-06-22T03:33:01;1247.30;;;999.90;;
24096;SDS011;12275;48.550;12.132;2023-06-22T03:35:27;1229.50;;;999.90;;
24096;SDS011;12275;48.550;12.132;2023-06-22T03:37:53;1223.75;;;999.90;;
24096;SDS011;12275;48.550;12.132;2023-06-22T03:40:20;1221.80;;;999.90;;
24096;SDS011;12275;48.550;12.132;2023-06-22T03:42:46;1231.78;;;999.90;;
24096;SDS011;12275;48.550;12.132;2023-06-22T03:45:12;1234.77;;;999.90;;
24096;SDS011;12275;48.550;12.132;2023-06-22T03:47:38;1234.78;;;999.90;;
24096;SDS011;12275;48.550;12.132;2023-06-22T03:50:04;1241.95;;;999.90;;
24096;SDS011;12275;48.550;12.132;2023-06-22T03:52:31;1229.07;;;999.90;;
24096;SDS011;12275;48.550;12.132;2023-06-22T03:54:57;1231.63;;;999.90;;
24096;SDS011;12275;48.550;12.132;2023-06-22T03:57:23;1244.28;;;999.90;;
24096;SDS011;12275;48.550;12.132;2023-06-22T03:59:49;1217.40;;;999.90;;
24096;SDS011;12275;48.550;12.132;2023-06-22T04:02:15;1219.73;;;999.90;;
24096;SDS011;12275;48.550;12.132;2023-06-22T04:04:41;1210.30;;;999.90;;
24096;SDS011;12275;48.550;12.132;2023-06-22T04:07:07;1214.47;;;999.90;;
24096;SDS011;12275;48.550;12.132;2023-06-22T04:09:33;1211.57;;;999.90;;
24096;SDS011;12275;48.550;12.132;2023-06-22T04:11:59;1100.27;;;999.90;;
24096;SDS011;12275;48.550;12.132;2023-06-22T04:14:25;1151.65;;;999.90;;
24096;SDS011;12275;48.550;12.132;2023-06-22T04:16:51;1230.20;;;999.90;;
24096;SDS011;12275;48.550;12.132;2023-06-22T04:19:17;1212.93;;;999.90;;
24096;SDS011;12275;48.550;12.132;2023-06-22T04:21:44;1172.75;;;999.90;;
24096;SDS011;12275;48.550;12.132;2023-06-22T04:24:10;1218.17;;;999.90;;
24096;SDS011;12275;48.550;12.132;2023-06-22T04:26:36;1151.18;;;999.90;;
24096;SDS011;12275;48.550;12.132;2023-06-22T04:29:03;1179.32;;;999.90;;
24096;SDS011;12275;48.550;12.132;2023-06-22T04:31:31;1193.93;;;999.90;;
24096;SDS011;12275;48.550;12.132;2023-06-22T04:33:57;1227.90;;;999.90;;
24096;SDS011;12275;48.550;12.132;2023-06-22T04:36:30;1230.15;;;999.90;;
24096;SDS011;12275;48.550;12.132;2023-06-22T04:39:02;1242.13;;;999.90;;
24096;SDS011;12275;48.550;12.132;2023-06-22T04:41:28;1223.68;;;999.90;;
24096;SDS011;12275;48.550;12.132;2023-06-22T04:43:54;1232.13;;;999.90;;
24096;SDS011;12275;48.550;12.132;2023-06-22T04:46:24;1235.85;;;999.90;;
24096;SDS011;12275;48.550;12.132;2023-06-22T04:48:50;1219.95;;;999.90;;
24096;SDS011;12275;48.550;12.132;2023-06-22T04:51:16;1239.10;;;999.90;;
24096;SDS011;12275;48.550;12.132;2023-06-22T04:53:46;1228.55;;;999.90;;
24096;SDS011;12275;48.550;12.132;2023-06-22T04:56:12;1221.63;;;999.90;;
24096;SDS011;12275;48.550;12.132;2023-06-22T04:58:40;1238.57;;;999.90;;
24096;SDS011;12275;48.550;12.132;2023-06-22T05:01:06;1244.93;;;999.90;;
24096;SDS011;12275;48.550;12.132;2023-06-22T05:03:33;1256.90;;;999.90;;
24096;SDS011;12275;48.550;12.132;2023-06-22T05:06:01;1240.90;;;999.90;;
24096;SDS011;12275;48.550;12.132;2023-06-22T05:08:27;1245.20;;;999.90;;
24096;SDS011;12275;48.550;12.132;2023-06-22T05:10:53;1244.63;;;999.90;;
24096;SDS011;12275;48.550;12.132;2023-06-22T05:13:19;1257.70;;;999.90;;
24096;SDS011;12275;48.550;12.132;2023-06-22T05:15:46;1214.97;;;999.90;;
24096;SDS011;12275;48.550;12.132;2023-06-22T05:18:12;1226.88;;;999.90;;
24096;SDS011;12275;48.550;12.132;2023-06-22T05:20:38;1224.65;;;999.90;;
24096;SDS011;12275;48.550;12.132;2023-06-22T05:23:04;1220.82;;;999.90;;
24096;SDS011;12275;48.550;12.132;2023-06-22T05:25:30;1235.70;;;999.90;;
24096;SDS011;12275;48.550;12.132;2023-06-22T05:27:57;1225.77;;;999.90;;
24096;SDS011;12275;48.550;12.132;2023-06-22T05:30:23;1247.82;;;999.90;;
24096;SDS011;12275;48.550;12.132;2023-06-22T05:32:49;1246.40;;;999.90;;
24096;SDS011;12275;48.550;12.132;2023-06-22T05:35:17;1236.90;;;999.90;;
24096;SDS011;12275;48.550;12.132;2023-06-22T05:37:43;1247.93;;;999.90;;
24096;SDS011;12275;48.550;12.132;2023-06-22T05:40:09;1193.32;;;999.90;;
24096;SDS011;12275;48.550;12.132;2023-06-22T05:42:36;1123.50;;;999.90;;
24096;SDS011;12275;48.550;12.132;2023-06-22T05:45:02;1211.53;;;999.90;;
24096;SDS011;12275;48.550;12.132;2023-06-22T05:47:28;1186.32;;;999.90;;
24096;SDS011;12275;48.550;12.132;2023-06-22T05:49:54;1192.45;;;999.90;;
24096;SDS011;12275;48.550;12.132;2023-06-22T05:52:20;1236.47;;;999.90;;
24096;SDS011;12275;48.550;12.132;2023-06-22T05:54:46;1248.85;;;999.90;;
24096;SDS011;12275;48.550;12.132;2023-06-22T05:57:12;1178.32;;;999.90;;
24096;SDS011;12275;48.550;12.132;2023-06-22T05:59:38;1144.43;;;999.90;;
24096;SDS011;12275;48.550;12.132;2023-06-22T06:02:04;1253.60;;;999.90;;
24096;SDS011;12275;48.550;12.132;2023-06-22T06:04:33;1275.68;;;999.90;;
24096;SDS011;12275;48.550;12.132;2023-06-22T06:06:59;1267.45;;;999.90;;
24096;SDS011;12275;48.550;12.132;2023-06-22T06:09:26;1266.55;;;999.90;;
24096;SDS011;12275;48.550;12.132;2023-06-22T06:11:52;1276.80;;;999.90;;
24096;SDS011;12275;48.550;12.132;2023-06-22T06:14:18;1269.63;;;999.90;;
24096;SDS011;12275;48.550;12.132;2023-06-22T06:16:45;1195.82;;;999.90;;
24096;SDS011;12275;48.550;12.132;2023-06-22T06:19:11;1209.03;;;999.90;;
24096;SDS011;12275;48.550;12.132;2023-06-22T06:21:37;1234.07;;;999.90;;
24096;SDS011;12275;48.550;12.132;2023-06-22T06:24:03;1160.50;;;999.90;;
24096;SDS011;12275;48.550;12.132;2023-06-22T06:26:29;1210.53;;;999.90;;
24096;SDS011;12275;48.550;12.132;2023-06-22T06:28:58;1205.53;;;999.90;;
24096;SDS011;12275;48.550;12.132;2023-06-22T06:31:24;1211.63;;;999.90;;
24096;SDS011;12275;48.550;12.132;2023-06-22T06:33:53;1203.80;;;999.90;;
24096;SDS011;12275;48.550;12.132;2023-06-22T06:36:19;1210.38;;;999.90;;
24096;SDS011;12275;48.550;12.132;2023-06-22T06:38:45;1195.88;;;999.90;;
24096;SDS011;12275;48.550;12.132;2023-06-22T06:41:15;1167.20;;;999.90;;
24096;SDS011;12275;48.550;12.132;2023-06-22T06:43:41;1190.38;;;999.90;;
24096;SDS011;12275;48.550;12.132;2023-06-22T06:46:10;1214.20;;;999.90;;
24096;SDS011;12275;48.550;12.132;2023-06-22T06:48:36;1259.97;;;999.90;;
24096;SDS011;12275;48.550;12.132;2023-06-22T06:51:02;1265.70;;;999.90;;
24096;SDS011;12275;48.550;12.132;2023-06-22T06:53:28;1271.18;;;999.90;;
24096;SDS011;12275;48.550;12.132;2023-06-22T06:55:54;1269.15;;;999.90;;
24096;SDS011;12275;48.550;12.132;2023-06-22T06:58:20;1169.53;;;999.90;;
24096;SDS011;12275;48.550;12.132;2023-06-22T07:00:48;1232.00;;;999.90;;
24096;SDS011;12275;48.550;12.132;2023-06-22T07:03:14;1256.65;;;999.90;;
24096;SDS011;12275;48.550;12.132;2023-06-22T07:05:40;1097.53;;;999.90;;
24096;SDS011;12275;48.550;12.132;2023-06-22T07:08:06;1150.35;;;999.90;;
24096;SDS011;12275;48.550;12.132;2023-06-22T07:10:32;1170.47;;;999.90;;
24096;SDS011;12275;48.550;12.132;2023-06-22T07:12:58;1199.07;;;999.90;;
24096;SDS011;12275;48.550;12.132;2023-06-22T07:15:24;1124.97;;;999.90;;
24096;SDS011;12275;48.550;12.132;2023-06-22T07:17:52;1173.13;;;999.90;;
24096;SDS011;12275;48.550;12.132;2023-06-22T07:20:18;1154.40;;;999.90;;
24096;SDS011;12275;48.550;12.132;2023-06-22T07:22:44;1224.32;;;999.90;;
24096;SDS011;12275;48.550;12.132;2023-06-22T07:25:11;1177.85;;;999.90;;
24096;SDS011;12275;48.550;12.132;2023-06-22T07:27:39;1193.93;;;999.90;;
24096;SDS011;12275;48.550;12.132;2023-06-22T07:30:07;1124.82;;;999.90;;
24096;SDS011;12275;48.550;12.132;2023-06-22T07:32:34;1245.10;;;999.90;;
24096;SDS011;12275;48.550;12.132;2023-06-22T07:35:00;1240.75;;;999.90;;
24096;SDS011;12275;48.550;12.132;2023-06-22T07:37:26;1230.97;;;999.90;;
24096;SDS011;12275;48.550;12.132;2023-06-22T07:39:53;1141.10;;;999.90;;
24096;SDS011;12275;48.550;12.132;2023-06-22T07:42:23;1050.10;;;961.30;;
24096;SDS011;12275;48.550;12.132;2023-06-22T07:44:49;1035.60;;;947.72;;
24096;SDS011;12275;48.550;12.132;2023-06-22T07:47:16;1002.38;;;916.08;;
24096;SDS011;12275;48.550;12.132;2023-06-22T07:49:44;1044.35;;;955.72;;
24096;SDS011;12275;48.550;12.132;2023-06-22T07:52:10;1027.95;;;939.88;;
24096;SDS011;12275;48.550;12.132;2023-06-22T07:54:36;1006.30;;;919.60;;
24096;SDS011;12275;48.550;12.132;2023-06-22T07:57:02;1077.90;;;986.53;;
24096;SDS011;12275;48.550;12.132;2023-06-22T07:59:28;1064.13;;;972.30;;
24096;SDS011;12275;48.550;12.132;2023-06-22T08:01:55;1010.83;;;922.05;;
24096;SDS011;12275;48.550;12.132;2023-06-22T08:04:21;927.33;;;843.13;;
24096;SDS011;12275;48.550;12.132;2023-06-22T08:06:47;901.30;;;819.13;;
24096;SDS011;12275;48.550;12.132;2023-06-22T08:09:14;1246.35;;;999.90;;
24096;SDS011;12275;48.550;12.132;2023-06-22T08:11:40;1281.00;;;999.90;;
24096;SDS011;12275;48.550;12.132;2023-06-22T08:14:06;1272.07;;;999.90;;
24096;SDS011;12275;48.550;12.132;2023-06-22T08:16:32;1284.38;;;999.90;;
24096;SDS011;12275;48.550;12.132;2023-06-22T08:18:58;1291.82;;;999.90;;
24096;SDS011;12275;48.550;12.132;2023-06-22T08:21:24;1282.68;;;999.90;;
24096;SDS011;12275;48.550;12.132;2023-06-22T08:23:50;1272.20;;;999.90;;
24096;SDS011;12275;48.550;12.132;2023-06-22T08:26:16;1266.95;;;999.90;;
24096;SDS011;12275;48.550;12.132;2023-06-22T08:28:42;1277.57;;;999.90;;
24096;SDS011;12275;48.550;12.132;2023-06-22T08:31:08;1267.20;;;999.90;;
24096;SDS011;12275;48.550;12.132;2023-06-22T08:33:34;1242.38;;;999.90;;
24096;SDS011;12275;48.550;12.132;2023-06-22T08:36:00;1235.75;;;999.90;;
24096;SDS011;12275;48.550;12.132;2023-06-22T08:38:26;1227.40;;;999.90;;
24096;SDS011;12275;48.550;12.132;2023-06-22T08:40:52;1255.32;;;999.90;;
24096;SDS011;12275;48.550;12.132;2023-06-22T08:43:18;1225.35;;;999.90;;
24096;SDS011;12275;48.550;12.132;2023-06-22T08:45:44;1205.28;;;999.90;;
24096;SDS011;12275;48.550;12.132;2023-06-22T08:48:11;1242.88;;;999.90;;
24096;SDS011;12275;48.550;12.132;2023-06-22T08:50:36;1272.97;;;999.90;;
24096;SDS011;12275;48.550;12.132;2023-06-22T08:53:03;1254.32;;;999.90;;
24096;SDS011;12275;48.550;12.132;2023-06-22T08:55:29;1150.07;;;999.90;;
24096;SDS011;12275;48.550;12.132;2023-06-22T08:57:55;1197.57;;;999.90;;
24096;SDS011;12275;48.550;12.132;2023-06-22T09:00:21;1237.68;;;999.90;;
24096;SDS011;12275;48.550;12.132;2023-06-22T09:02:47;1248.77;;;999.90;;
24096;SDS011;12275;48.550;12.132;2023-06-22T09:05:14;1191.63;;;999.90;;
24096;SDS011;12275;48.550;12.132;2023-06-22T09:07:40;1223.95;;;999.90;;
24096;SDS011;12275;48.550;12.132;2023-06-22T09:10:07;1239.17;;;999.90;;
24096;SDS011;12275;48.550;12.132;2023-06-22T09:12:33;1226.13;;;999.90;;
24096;SDS011;12275;48.550;12.132;2023-06-22T09:15:01;1208.65;;;999.90;;
24096;SDS011;12275;48.550;12.132;2023-06-22T09:17:28;1164.18;;;999.90;;
24096;SDS011;12275;48.550;12.132;2023-06-22T09:19:54;1181.93;;;999.90;;
24096;SDS011;12275;48.550;12.132;2023-06-22T09:22:20;1249.70;;;999.90;;
24096;SDS011;12275;48.550;12.132;2023-06-22T09:24:46;1247.93;;;999.90;;
24096;SDS011;12275;48.550;12.132;2023-06-22T09:27:12;1263.63;;;999.90;;
24096;SDS011;12275;48.550;12.132;2023-06-22T09:29:38;1270.93;;;999.90;;
24096;SDS011;12275;48.550;12.132;2023-06-22T09:32:05;1272.70;;;999.90;;
24096;SDS011;12275;48.550;12.132;2023-06-22T09:34:31;1275.53;;;999.90;;
24096;SDS011;12275;48.550;12.132;2023-06-22T09:36:57;1263.50;;;999.90;;
24096;SDS011;12275;48.550;12.132;2023-06-22T09:39:25;1287.17;;;999.90;;
24096;SDS011;12275;48.550;12.132;2023-06-22T09:41:51;1292.63;;;999.90;;
24096;SDS011;12275;48.550;12.132;2023-06-22T09:44:17;1289.68;;;999.90;;
24096;SDS011;12275;48.550;12.132;2023-06-22T09:46:43;1276.85;;;999.90;;
24096;SDS011;12275;48.550;12.132;2023-06-22T09:49:09;1290.40;;;999.90;;
24096;SDS011;12275;48.550;12.132;2023-06-22T09:51:35;1290.32;;;999.90;;
24096;SDS011;12275;48.550;12.132;2023-06-22T09:54:01;1278.73;;;999.90;;
24096;SDS011;12275;48.550;12.132;2023-06-22T09:56:27;1283.78;;;999.90;;
24096;SDS011;12275;48.550;12.132;2023-06-22T09:58:55;1279.03;;;999.90;;
24096;SDS011;12275;48.550;12.132;2023-06-22T10:01:21;1283.33;;;999.90;;
24096;SDS011;12275;48.550;12.132;2023-06-22T10:03:47;1298.60;;;999.90;;
24096;SDS011;12275;48.550;12.132;2023-06-22T10:06:13;1296.53;;;999.90;;
24096;SDS011;12275;48.550;12.132;2023-06-22T10:08:40;1290.47;;;999.90;;
24096;SDS011;12275;48.550;12.132;2023-06-22T10:11:06;1290.20;;;999.90;;
24096;SDS011;12275;48.550;12.132;2023-06-22T10:13:32;1287.25;;;999.90;;
24096;SDS011;12275;48.550;12.132;2023-06-22T10:15:58;1292.50;;;999.90;;
24096;SDS011;12275;48.550;12.132;2023-06-22T10:18:24;1299.43;;;999.90;;
24096;SDS011;12275;48.550;12.132;2023-06-22T10:20:50;1311.50;;;999.90;;
24096;SDS011;12275;48.550;12.132;2023-06-22T10:23:16;1288.97;;;999.90;;
24096;SDS011;12275;48.550;12.132;2023-06-22T10:25:42;1302.53;;;999.90;;
24096;SDS011;12275;48.550;12.132;2023-06-22T10:28:09;1316.45;;;999.90;;
24096;SDS011;12275;48.550;12.132;2023-06-22T10:30:35;1316.10;;;999.90;;
24096;SDS011;12275;48.550;12.132;2023-06-22T10:33:01;1308.00;;;999.90;;
24096;SDS011;12275;48.550;12.132;2023-06-22T10:35:27;1313.97;;;999.90;;
24096;SDS011;12275;48.550;12.132;2023-06-22T10:37:53;1305.13;;;999.90;;
24096;SDS011;12275;48.550;12.132;2023-06-22T10:40:19;1294.97;;;999.90;;
24096;SDS011;12275;48.550;12.132;2023-06-22T10:42:45;1295.35;;;999.90;;
24096;SDS011;12275;48.550;12.132;2023-06-22T10:45:11;1272.22;;;999.90;;
24096;SDS011;12275;48.550;12.132;2023-06-22T10:47:38;1306.55;;;999.90;;
24096;SDS011;12275;48.550;12.132;2023-06-22T10:50:07;1277.03;;;999.90;;
24096;SDS011;12275;48.550;12.132;2023-06-22T10:52:33;1281.93;;;999.90;;
24096;SDS011;12275;48.550;12.132;2023-06-22T10:54:59;1292.17;;;999.90;;
24096;SDS011;12275;48.550;12.132;2023-06-22T10:57:25;1272.43;;;999.90;;
24096;SDS011;12275;48.550;12.132;2023-06-22T10:59:51;1279.30;;;999.90;;
24096;SDS011;12275;48.550;12.132;2023-06-22T11:02:17;1285.97;;;999.90;;
24096;SDS011;12275;48.550;12.132;2023-06-22T11:04:43;1283.20;;;999.90;;
24096;SDS011;12275;48.550;12.132;2023-06-22T11:07:09;1286.28;;;999.90;;
24096;SDS011;12275;48.550;12.132;2023-06-22T11:09:35;1281.63;;;999.90;;
24096;SDS011;12275;48.550;12.132;2023-06-22T11:12:03;1252.80;;;999.90;;
24096;SDS011;12275;48.550;12.132;2023-06-22T11:14:29;1272.55;;;999.90;;
24096;SDS011;12275;48.550;12.132;2023-06-22T11:16:55;1270.85;;;999.90;;
24096;SDS011;12275;48.550;12.132;2023-06-22T11:19:21;1274.93;;;999.90;;
24096;SDS011;12275;48.550;12.132;2023-06-22T11:21:47;1270.13;;;999.90;;
24096;SDS011;12275;48.550;12.132;2023-06-22T11:24:13;1286.55;;;999.90;;
24096;SDS011;12275;48.550;12.132;2023-06-22T11:26:40;1292.25;;;999.90;;
24096;SDS011;12275;48.550;12.132;2023-06-22T11:29:06;1288.75;;;999.90;;
24096;SDS011;12275;48.550;12.132;2023-06-22T11:31:33;1287.22;;;999.90;;
24096;SDS011;12275;48.550;12.132;2023-06-22T11:33:59;1296.78;;;999.90;;
24096;SDS011;12275;48.550;12.132;2023-06-22T11:36:25;1301.10;;;999.90;;
24096;SDS011;12275;48.550;12.132;2023-06-22T11:38:52;1311.50;;;999.90;;
24096;SDS011;12275;48.550;12.132;2023-06-22T11:41:18;1308.18;;;999.90;;
24096;SDS011;12275;48.550;12.132;2023-06-22T11:43:44;1315.00;;;999.90;;
24096;SDS011;12275;48.550;12.132;2023-06-22T11:46:10;1316.20;;;999.90;;
24096;SDS011;12275;48.550;12.132;2023-06-22T11:48:36;1317.57;;;999.90;;
24096;SDS011;12275;48.550;12.132;2023-06-22T11:51:02;1299.38;;;999.90;;
24096;SDS011;12275;48.550;12.132;2023-06-22T11:53:28;1314.38;;;999.90;;
24096;SDS011;12275;48.550;12.132;2023-06-22T11:55:55;1297.20;;;999.90;;
24096;SDS011;12275;48.550;12.132;2023-06-22T11:58:21;1304.60;;;999.90;;
24096;SDS011;12275;48.550;12.132;2023-06-22T12:00:47;1289.43;;;999.90;;
24096;SDS011;12275;48.550;12.132;2023-06-22T12:03:13;1300.70;;;999.90;;
24096;SDS011;12275;48.550;12.132;2023-06-22T12:05:41;1308.05;;;999.90;;
24096;SDS011;12275;48.550;12.132;2023-06-22T12:08:10;1286.70;;;999.90;;
24096;SDS011;12275;48.550;12.132;2023-06-22T12:10:38;1287.40;;;999.90;;
24096;SDS011;12275;48.550;12.132;2023-06-22T12:13:04;1290.55;;;999.90;;
24096;SDS011;12275;48.550;12.132;2023-06-22T12:15:30;1260.60;;;999.90;;
24096;SDS011;12275;48.550;12.132;2023-06-22T12:17:56;1262.28;;;999.90;;
24096;SDS011;12275;48.550;12.132;2023-06-22T12:20:22;1270.03;;;999.90;;
24096;SDS011;12275;48.550;12.132;2023-06-22T12:22:48;1279.90;;;999.90;;
24096;SDS011;12275;48.550;12.132;2023-06-22T12:25:16;1284.83;;;999.90;;
24096;SDS011;12275;48.550;12.132;2023-06-22T12:27:42;1278.88;;;999.90;;
24096;SDS011;12275;48.550;12.132;2023-06-22T12:30:08;1295.70;;;999.90;;
24096;SDS011;12275;48.550;12.132;2023-06-22T12:32:34;1299.72;;;999.90;;
24096;SDS011;12275;48.550;12.132;2023-06-22T12:35:00;1290.33;;;999.90;;
24096;SDS011;12275;48.550;12.132;2023-06-22T12:37:26;1297.93;;;999.90;;
24096;SDS011;12275;48.550;12.132;2023-06-22T12:39:53;1300.73;;;999.90;;
24096;SDS011;12275;48.550;12.132;2023-06-22T12:42:19;1282.35;;;999.90;;
24096;SDS011;12275;48.550;12.132;2023-06-22T12:44:46;1273.22;;;999.90;;
24096;SDS011;12275;48.550;12.132;2023-06-22T12:47:12;1278.35;;;999.90;;
24096;SDS011;12275;48.550;12.132;2023-06-22T12:49:38;1282.05;;;999.90;;
24096;SDS011;12275;48.550;12.132;2023-06-22T12:52:13;1294.65;;;999.90;;
24096;SDS011;12275;48.550;12.132;2023-06-22T12:54:39;1270.93;;;999.90;;
24096;SDS011;12275;48.550;12.132;2023-06-22T12:57:05;1288.32;;;999.90;;
24096;SDS011;12275;48.550;12.132;2023-06-22T12:59:31;1286.03;;;999.90;;
24096;SDS011;12275;48.550;12.132;2023-06-22T13:01:57;1254.45;;;999.90;;
24096;SDS011;12275;48.550;12.132;2023-06-22T13:04:23;1301.57;;;999.90;;
24096;SDS011;12275;48.550;12.132;2023-06-22T13:06:49;1300.72;;;999.90;;
24096;SDS011;12275;48.550;12.132;2023-06-22T13:09:15;1294.13;;;999.90;;
24096;SDS011;12275;48.550;12.132;2023-06-22T13:11:42;1267.07;;;999.90;;
24096;SDS011;12275;48.550;12.132;2023-06-22T13:14:08;1270.63;;;999.90;;
24096;SDS011;12275;48.550;12.132;2023-06-22T13:16:34;1274.43;;;999.90;;
24096;SDS011;12275;48.550;12.132;2023-06-22T13:19:00;1275.95;;;999.90;;
24096;SDS011;12275;48.550;12.132;2023-06-22T13:21:26;1264.78;;;999.90;;
24096;SDS011;12275;48.550;12.132;2023-06-22T13:23:52;1258.07;;;999.90;;
24096;SDS011;12275;48.550;12.132;2023-06-22T13:26:18;1281.82;;;999.90;;
24096;SDS011;12275;48.550;12.132;2023-06-22T13:28:44;1281.88;;;999.90;;
24096;SDS011;12275;48.550;12.132;2023-06-22T13:31:10;1325.23;;;999.90;;
24096;SDS011;12275;48.550;12.132;2023-06-22T13:33:37;1322.30;;;999.90;;